Terminal Aerodrome Forecast
Issued by NWS

Home | Current Version | Previous Version | Text Only | Print | Product List | Glossary Off
Versions: 1 2 3 4 5 6 7 8 9 10 11 12 13 14 15 16 17 18 19 20 21
000 FTUS41 KBOX 232333 TAFBED TAF KBED 232333Z 2400/2424 18008KT 4SM -RA BR OVC015 FM240130 18006KT P6SM OVC010 FM240500 22007KT P6SM OVC020 FM240800 23007KT P6SM OVC200 FM241400 29006KT P6SM SCT250=

USA.gov is the U.S. government's official web portal to all federal, state and local government web resources and services.